Time;durP1;ratioP1;P1;durP2;ratioP2;P2;SDS_P1;SDS_P2;PMS_P1;PMS_P2;Temp;Humidity;BMP_temperature;BMP_pressure;BME280_temperature;BME280_humidity;BME280_pressure;Samples;Min_cycle;Max_cycle;Signal;HPM_P1;HPM_P2
2021/07/27 00:00:33;;;;;;;8.73;4.50;;;15.80;99.90;;;;;;5035327;28;20017;-81
2021/07/27 00:03:00;;;;;;;9.32;5.28;;;15.80;99.90;;;;;;5012243;28;20331;-81
2021/07/27 00:05:26;;;;;;;9.15;5.60;;;15.80;99.90;;;;;;5008797;28;20451;-81
2021/07/27 00:07:52;;;;;;;11.90;5.95;;;15.80;99.90;;;;;;5009303;28;20212;-81
2021/07/27 00:10:18;;;;;;;12.45;5.22;;;15.70;99.90;;;;;;5009006;28;20117;-81
2021/07/27 00:12:43;;;;;;;12.45;5.50;;;15.70;99.90;;;;;;5008827;28;20053;-81
2021/07/27 00:15:09;;;;;;;10.45;5.25;;;15.70;99.90;;;;;;5008408;28;20029;-81
2021/07/27 00:17:35;;;;;;;9.75;5.75;;;15.70;99.90;;;;;;5007403;28;20137;-81
2021/07/27 00:20:01;;;;;;;9.73;5.43;;;15.70;99.90;;;;;;5007173;28;20886;-81
2021/07/27 00:22:26;;;;;;;12.75;5.38;;;15.60;99.90;;;;;;5007728;28;20390;-81
2021/07/27 00:24:53;;;;;;;14.90;5.57;;;15.60;99.90;;;;;;5008600;28;20748;-81
2021/07/27 00:27:19;;;;;;;12.30;5.57;;;15.60;99.90;;;;;;5008112;28;20037;-81
2021/07/27 00:29:45;;;;;;;9.82;5.53;;;15.60;99.90;;;;;;4990502;28;20036;-80
2021/07/27 00:32:10;;;;;;;17.20;5.65;;;15.60;99.90;;;;;;5007195;28;20034;-81
2021/07/27 00:34:36;;;;;;;10.68;5.65;;;15.60;99.90;;;;;;5007482;28;20030;-81
2021/07/27 00:37:02;;;;;;;9.95;5.10;;;15.60;99.90;;;;;;4989870;28;20022;-81
2021/07/27 00:39:28;;;;;;;10.30;5.18;;;15.50;99.90;;;;;;5008546;28;20026;-81
2021/07/27 00:41:53;;;;;;;6.97;5.07;;;15.50;99.90;;;;;;5008073;28;20026;-81
2021/07/27 00:44:19;;;;;;;8.10;5.15;;;15.50;99.90;;;;;;5006827;28;20501;-81
2021/07/27 00:46:45;;;;;;;11.07;5.03;;;15.50;99.90;;;;;;5008065;28;20502;-81
2021/07/27 00:49:11;;;;;;;7.57;4.70;;;15.50;99.90;;;;;;5007861;28;20030;-82
2021/07/27 00:51:38;;;;;;;6.10;5.13;;;15.50;99.90;;;;;;5007909;28;20045;-81
2021/07/27 00:54:06;;;;;;;13.73;5.63;;;15.50;99.90;;;;;;5006082;28;20030;-81
2021/07/27 00:56:34;;;;;;;12.35;6.00;;;15.50;99.90;;;;;;5008128;28;20132;-81
2021/07/27 00:59:00;;;;;;;9.45;5.40;;;15.50;99.90;;;;;;4987456;28;20133;-81
2021/07/27 01:01:25;;;;;;;8.40;5.63;;;15.40;99.90;;;;;;5005869;28;20026;-81
2021/07/27 01:03:51;;;;;;;8.52;5.70;;;15.50;99.90;;;;;;5007585;28;20022;-81
2021/07/27 01:06:17;;;;;;;9.43;5.53;;;15.40;99.90;;;;;;5007421;28;20117;-81
2021/07/27 01:08:43;;;;;;;15.52;6.45;;;15.40;99.90;;;;;;5007899;28;20037;-81
2021/07/27 01:11:09;;;;;;;8.73;5.32;;;15.40;99.90;;;;;;5007254;28;20064;-81
2021/07/27 01:13:34;;;;;;;10.85;5.47;;;15.40;99.90;;;;;;5007431;28;20065;-81
2021/07/27 01:16:07;;;;;;;9.57;5.80;;;15.40;99.90;;;;;;5007244;28;20072;-81
2021/07/27 01:18:40;;;;;;;12.02;6.53;;;15.40;99.90;;;;;;5005785;28;20017;-81
2021/07/27 01:39:58;;;;;;;9.07;5.28;;;15.30;99.90;;;;;;5007018;28;20060;-81
2021/07/27 01:42:24;;;;;;;6.05;5.15;;;15.30;99.90;;;;;;5006842;28;20053;-81
2021/07/27 01:44:49;;;;;;;11.20;5.30;;;15.30;99.90;;;;;;5006475;28;20029;-81
2021/07/27 01:47:19;;;;;;;7.88;4.82;;;15.30;99.90;;;;;;5006549;28;20441;-81
2021/07/27 01:49:45;;;;;;;10.13;5.15;;;15.30;99.90;;;;;;5006830;28;20030;-81
2021/07/27 01:52:14;;;;;;;7.32;5.20;;;15.30;99.90;;;;;;5006020;28;20048;-81
2021/07/27 01:54:46;;;;;;;8.15;5.75;;;15.30;99.90;;;;;;5005359;28;20076;-81
2021/07/27 01:57:15;;;;;;;9.00;5.40;;;15.30;99.90;;;;;;5007307;28;20572;-81
2021/07/27 01:59:41;;;;;;;11.25;5.22;;;15.20;99.90;;;;;;5007384;28;20022;-81
2021/07/27 02:02:11;;;;;;;6.55;5.03;;;15.20;99.90;;;;;;5007230;28;20053;-81
2021/07/27 02:04:36;;;;;;;9.90;4.63;;;15.20;99.90;;;;;;5006215;28;20088;-82
2021/07/27 02:07:02;;;;;;;8.80;5.00;;;15.20;99.90;;;;;;4989160;28;20541;-81
2021/07/27 02:09:35;;;;;;;7.40;5.18;;;15.20;99.90;;;;;;5006695;28;20113;-81
2021/07/27 02:12:02;;;;;;;11.32;3.95;;;15.20;99.90;;;;;;5006532;28;20030;-81
2021/07/27 02:17:12;;;;;;;7.47;4.78;;;15.20;99.90;;;;;;5007715;28;20064;-81
2021/07/27 02:19:37;;;;;;;7.88;4.55;;;15.20;99.90;;;;;;5006652;28;20057;-81
2021/07/27 02:22:04;;;;;;;10.77;4.90;;;15.10;99.90;;;;;;5006600;28;20041;-81
2021/07/27 02:24:29;;;;;;;11.25;4.60;;;15.10;99.90;;;;;;5006539;28;20516;-81
2021/07/27 02:26:55;;;;;;;9.10;4.95;;;15.10;99.90;;;;;;5006892;28;20049;-81
2021/07/27 02:29:20;;;;;;;10.63;4.07;;;15.10;99.90;;;;;;5006871;28;20026;-81
2021/07/27 02:31:46;;;;;;;8.57;4.47;;;15.10;99.90;;;;;;5006390;28;20201;-80
2021/07/27 02:34:11;;;;;;;8.20;4.85;;;15.00;99.90;;;;;;5006852;28;20026;-81
2021/07/27 02:36:37;;;;;;;5.28;4.07;;;15.00;99.90;;;;;;5006995;28;20034;-81
2021/07/27 02:39:06;;;;;;;9.13;5.10;;;15.00;99.90;;;;;;5006321;28;20022;-81
2021/07/27 02:41:33;;;;;;;8.23;4.88;;;15.00;99.90;;;;;;5006943;28;20069;-80
2021/07/27 02:44:00;;;;;;;8.50;4.32;;;15.00;99.90;;;;;;5006799;28;20041;-81
2021/07/27 02:46:26;;;;;;;8.40;4.72;;;15.00;99.90;;;;;;5006469;28;20030;-81
2021/07/27 02:48:51;;;;;;;9.50;4.90;;;15.00;99.90;;;;;;5006252;28;20052;-81
2021/07/27 02:51:17;;;;;;;11.05;4.88;;;15.00;99.90;;;;;;5005234;28;20057;-81
2021/07/27 02:53:42;;;;;;;6.68;4.13;;;15.00;99.90;;;;;;5006385;28;20124;-81
2021/07/27 02:56:08;;;;;;;10.23;4.93;;;15.00;99.90;;;;;;5006750;28;20044;-81
2021/07/27 02:58:34;;;;;;;9.57;4.43;;;15.00;99.90;;;;;;4988873;28;20022;-81
2021/07/27 03:01:02;;;;;;;7.45;4.57;;;15.00;99.90;;;;;;5006253;28;20072;-81
2021/07/27 03:03:28;;;;;;;9.63;4.20;;;15.00;99.90;;;;;;5009357;28;20036;-81
2021/07/27 03:06:01;;;;;;;5.10;4.13;;;14.90;99.90;;;;;;5010254;28;20475;-82
2021/07/27 03:08:47;;;;;;;7.47;4.25;;;15.00;99.90;;;;;;5009970;28;20026;-82
2021/07/27 03:11:13;;;;;;;9.10;4.70;;;14.90;99.90;;;;;;5010020;28;20037;-82
2021/07/27 03:13:41;;;;;;;8.70;4.22;;;14.90;99.90;;;;;;5009705;28;20029;-82
2021/07/27 03:16:07;;;;;;;15.80;4.85;;;14.90;99.90;;;;;;5009703;28;20463;-82
2021/07/27 03:18:32;;;;;;;7.65;4.38;;;14.90;99.90;;;;;;4991807;28;20026;-82
2021/07/27 03:20:58;;;;;;;7.20;4.57;;;14.90;99.90;;;;;;4992000;28;20050;-82
2021/07/27 03:23:26;;;;;;;8.85;4.25;;;14.80;99.90;;;;;;4992060;28;20082;-82
2021/07/27 03:25:52;;;;;;;7.82;4.97;;;14.80;99.90;;;;;;5009186;28;20116;-82
2021/07/27 03:28:18;;;;;;;7.95;5.03;;;14.80;99.90;;;;;;5009295;28;20061;-82
2021/07/27 03:30:43;;;;;;;9.63;5.43;;;14.80;99.90;;;;;;5009672;28;20435;-82
2021/07/27 03:33:09;;;;;;;15.30;4.95;;;14.80;99.90;;;;;;5009133;28;20034;-82
2021/07/27 03:35:34;;;;;;;9.95;4.82;;;14.80;99.90;;;;;;5009258;28;20033;-82
2021/07/27 03:38:04;;;;;;;8.05;4.82;;;14.80;99.90;;;;;;5008796;28;20026;-82
2021/07/27 03:40:29;;;;;;;8.65;4.80;;;14.70;99.90;;;;;;5009079;28;20498;-82
2021/07/27 03:42:55;;;;;;;7.18;4.88;;;14.70;99.90;;;;;;5009092;28;20034;-81
2021/07/27 03:45:20;;;;;;;9.02;4.97;;;14.70;99.90;;;;;;5009313;28;20042;-81
2021/07/27 03:47:46;;;;;;;8.77;5.18;;;14.70;99.90;;;;;;5009064;28;20207;-81
2021/07/27 03:50:11;;;;;;;10.18;5.00;;;14.70;99.90;;;;;;5012229;28;20037;-76
2021/07/27 03:52:38;;;;;;;16.08;4.65;;;14.70;99.90;;;;;;4997515;28;20111;-75
2021/07/27 03:55:03;;;;;;;9.88;4.70;;;14.70;99.90;;;;;;4997989;28;20026;-76
2021/07/27 03:57:29;;;;;;;9.27;5.05;;;14.60;99.90;;;;;;4997534;28;20097;-76
2021/07/27 03:59:55;;;;;;;9.55;4.93;;;14.70;99.90;;;;;;5015085;28;20034;-75
2021/07/27 04:02:20;;;;;;;8.82;4.97;;;14.60;99.90;;;;;;4997294;28;20030;-76
2021/07/27 04:04:46;;;;;;;8.68;4.97;;;14.70;99.90;;;;;;5015117;28;20470;-75
2021/07/27 04:07:12;;;;;;;18.58;5.60;;;14.60;99.90;;;;;;5015368;28;20032;-75
2021/07/27 04:09:38;;;;;;;11.10;4.80;;;14.60;99.90;;;;;;5015125;28;20040;-75
2021/07/27 04:12:04;;;;;;;6.85;4.50;;;14.60;99.90;;;;;;5014549;28;20067;-76
2021/07/27 04:14:29;;;;;;;9.27;4.70;;;14.60;99.90;;;;;;5014600;28;20026;-75
2021/07/27 04:16:56;;;;;;;8.07;4.72;;;14.60;99.90;;;;;;5015123;28;20530;-75
2021/07/27 04:19:22;;;;;;;10.20;4.95;;;14.70;99.90;;;;;;5014675;28;20029;-75
2021/07/27 04:21:48;;;;;;;10.52;4.60;;;14.70;99.90;;;;;;5014866;28;20498;-76
2021/07/27 04:24:13;;;;;;;6.35;4.20;;;14.70;99.90;;;;;;4997129;28;20049;-76
2021/07/27 04:26:39;;;;;;;9.55;4.53;;;14.70;99.90;;;;;;5014934;28;20032;-78
2021/07/27 04:29:04;;;;;;;7.97;4.97;;;14.70;99.90;;;;;;5014752;28;20470;-76
2021/07/27 04:31:30;;;;;;;7.55;4.97;;;14.70;99.90;;;;;;5014524;28;20367;-76
2021/07/27 04:33:55;;;;;;;14.18;4.68;;;14.70;99.90;;;;;;5014389;28;20444;-76
2021/07/27 04:36:21;;;;;;;12.05;6.32;;;14.70;99.90;;;;;;5014871;28;20025;-76
2021/07/27 04:38:49;;;;;;;9.13;4.90;;;14.70;99.90;;;;;;4997036;28;20455;-76
2021/07/27 04:41:14;;;;;;;7.72;4.80;;;14.70;99.90;;;;;;4996821;28;20029;-75
2021/07/27 04:43:40;;;;;;;11.85;5.15;;;14.80;99.90;;;;;;5007583;28;20022;-76
2021/07/27 04:46:07;;;;;;;12.98;5.07;;;14.80;99.90;;;;;;5034177;28;20056;-75
2021/07/27 04:48:33;;;;;;;8.85;5.20;;;14.80;99.90;;;;;;5034009;28;20489;-76
2021/07/27 04:51:01;;;;;;;9.80;5.65;;;14.80;99.90;;;;;;5034122;28;20112;-76
2021/07/27 04:53:30;;;;;;;10.48;6.10;;;14.80;99.90;;;;;;5016140;28;20125;-75
2021/07/27 04:56:00;;;;;;;9.98;5.43;;;14.90;99.90;;;;;;5015987;28;20022;-76
2021/07/27 04:58:25;;;;;;;7.03;5.70;;;14.90;99.90;;;;;;5008776;28;20022;-76
2021/07/27 05:00:51;;;;;;;7.90;5.82;;;14.90;99.90;;;;;;4996354;28;20029;-76
2021/07/27 05:03:16;;;;;;;10.43;5.03;;;15.00;99.90;;;;;;5014030;28;20034;-76
2021/07/27 05:05:42;;;;;;;7.93;5.57;;;15.00;99.90;;;;;;5012623;28;20036;-76
2021/07/27 05:08:07;;;;;;;7.82;5.10;;;15.00;99.90;;;;;;5013860;28;20401;-76
2021/07/27 05:10:38;;;;;;;7.45;5.20;;;15.10;99.90;;;;;;5014024;28;20045;-76
2021/07/27 05:13:05;;;;;;;10.60;5.70;;;15.00;99.90;;;;;;4996210;28;20053;-83
2021/07/27 05:15:30;;;;;;;9.00;4.95;;;15.10;99.90;;;;;;5011574;28;20076;-76
2021/07/27 05:18:02;;;;;;;6.10;4.93;;;15.10;99.90;;;;;;5010400;28;20057;-82
2021/07/27 05:20:28;;;;;;;13.95;5.88;;;15.00;99.90;;;;;;5013046;28;20041;-76
2021/07/27 05:22:54;;;;;;;9.73;4.90;;;15.10;99.90;;;;;;5014522;28;20362;-76
2021/07/27 05:25:20;;;;;;;9.15;5.40;;;15.10;99.90;;;;;;5013299;28;20040;-76
2021/07/27 05:27:48;;;;;;;8.88;5.10;;;15.10;99.90;;;;;;5013874;28;20025;-76
2021/07/27 05:30:16;;;;;;;14.93;6.30;;;15.10;99.90;;;;;;5013738;28;20102;-76
2021/07/27 05:32:42;;;;;;;13.73;5.93;;;15.10;99.90;;;;;;5013826;28;20033;-76
2021/07/27 05:35:09;;;;;;;9.52;5.80;;;15.20;99.90;;;;;;5014513;28;20054;-76
2021/07/27 05:37:35;;;;;;;8.20;5.80;;;15.20;99.90;;;;;;5014087;28;20371;-76
2021/07/27 05:40:02;;;;;;;10.52;6.30;;;15.30;99.90;;;;;;4995850;28;20494;-76
2021/07/27 05:42:29;;;;;;;11.00;6.20;;;15.40;99.90;;;;;;5012325;28;20030;-76
2021/07/27 05:44:55;;;;;;;11.63;6.28;;;15.50;99.90;;;;;;4990847;28;20792;-82
2021/07/27 05:47:21;;;;;;;8.68;6.00;;;15.60;99.90;;;;;;4993725;28;20105;-76
2021/07/27 05:49:49;;;;;;;11.20;6.60;;;15.70;99.90;;;;;;4993524;28;20084;-78
2021/07/27 05:52:14;;;;;;;8.10;6.40;;;15.70;99.90;;;;;;5012773;28;20026;-77
2021/07/27 05:54:40;;;;;;;10.50;6.05;;;15.80;99.90;;;;;;4995812;28;20029;-77
2021/07/27 05:57:10;;;;;;;9.43;6.35;;;16.00;99.90;;;;;;5013613;28;20324;-77
2021/07/27 05:59:36;;;;;;;8.82;6.82;;;16.10;99.90;;;;;;5013754;28;20053;-77
2021/07/27 06:02:02;;;;;;;15.15;7.03;;;16.20;99.90;;;;;;5015541;28;20022;-80
2021/07/27 06:04:27;;;;;;;7.15;5.78;;;16.30;99.90;;;;;;5033323;28;20068;-79
2021/07/27 06:06:53;;;;;;;9.63;6.28;;;16.40;99.90;;;;;;5034334;28;20073;-79
2021/07/27 06:09:20;;;;;;;8.52;5.70;;;16.60;99.90;;;;;;5003933;28;20076;-78
2021/07/27 06:11:45;;;;;;;8.00;6.10;;;16.70;99.90;;;;;;5015533;28;20053;-78
2021/07/27 06:14:11;;;;;;;10.18;5.72;;;16.80;99.90;;;;;;5014768;28;20025;-78
2021/07/27 06:16:40;;;;;;;9.95;5.60;;;16.90;99.90;;;;;;5015500;28;20037;-78
2021/07/27 06:19:07;;;;;;;8.50;5.20;;;17.10;99.90;;;;;;5016698;28;20018;-78
2021/07/27 06:21:33;;;;;;;9.05;5.30;;;17.20;99.90;;;;;;5016814;28;20164;-78
2021/07/27 06:23:59;;;;;;;9.43;5.35;;;17.40;99.90;;;;;;5016993;28;20030;-77
2021/07/27 06:26:26;;;;;;;7.65;5.00;;;17.50;99.90;;;;;;5016150;28;20026;-77
2021/07/27 06:28:51;;;;;;;8.77;5.32;;;17.70;99.90;;;;;;5015942;28;20030;-77
2021/07/27 06:31:17;;;;;;;8.50;4.53;;;17.80;99.90;;;;;;5013412;28;20049;-77
2021/07/27 06:33:44;;;;;;;6.88;4.85;;;17.90;99.90;;;;;;5013651;28;20037;-77
2021/07/27 06:36:10;;;;;;;9.52;4.82;;;18.00;99.90;;;;;;5013531;28;20029;-76
2021/07/27 06:38:37;;;;;;;9.80;4.90;;;18.00;99.90;;;;;;5016489;28;20036;-77
2021/07/27 06:41:07;;;;;;;9.43;5.28;;;18.10;99.90;;;;;;5017323;28;20030;-76
2021/07/27 06:43:33;;;;;;;7.07;4.82;;;18.20;99.90;;;;;;5017094;28;20018;-77
2021/07/27 06:45:59;;;;;;;6.68;4.72;;;18.30;99.90;;;;;;4999274;28;20378;-77
2021/07/27 06:48:25;;;;;;;9.27;4.97;;;18.40;99.90;;;;;;5016978;28;20056;-76
2021/07/27 06:50:51;;;;;;;7.32;4.35;;;18.50;99.90;;;;;;5017210;28;20121;-76
2021/07/27 06:53:17;;;;;;;7.13;4.70;;;18.60;99.90;;;;;;5022666;28;20029;-78
2021/07/27 06:55:42;;;;;;;6.68;4.30;;;18.60;99.90;;;;;;5001668;28;20045;-78
2021/07/27 06:58:08;;;;;;;11.02;5.00;;;18.70;99.90;;;;;;5016907;28;20029;-78
2021/07/27 07:00:34;;;;;;;9.93;4.60;;;18.90;99.90;;;;;;5019390;28;20490;-78
2021/07/27 07:02:59;;;;;;;6.72;4.20;;;19.00;99.90;;;;;;5021166;28;20489;-77
2021/07/27 07:05:25;;;;;;;6.43;4.35;;;19.10;99.90;;;;;;5017630;28;20134;-77
2021/07/27 07:07:51;;;;;;;7.35;4.53;;;19.10;99.90;;;;;;5017289;28;20451;-77
2021/07/27 07:10:16;;;;;;;4.88;3.92;;;19.20;99.90;;;;;;5017096;28;20121;-76
2021/07/27 07:12:42;;;;;;;6.55;4.30;;;19.20;99.90;;;;;;5017204;28;20030;-76
2021/07/27 07:15:08;;;;;;;6.53;4.25;;;19.40;99.90;;;;;;5016530;28;20474;-77
2021/07/27 07:17:34;;;;;;;7.00;4.60;;;19.40;99.90;;;;;;5016719;28;20026;-76
2021/07/27 07:19:59;;;;;;;4.90;3.75;;;19.50;99.90;;;;;;5000260;28;20470;-77
2021/07/27 07:22:25;;;;;;;6.80;4.43;;;19.50;99.90;;;;;;5024445;28;20054;-78
2021/07/27 07:24:51;;;;;;;6.85;4.90;;;19.50;99.90;;;;;;5013975;28;20080;-74
2021/07/27 07:27:17;;;;;;;5.00;4.03;;;19.50;99.90;;;;;;5007474;28;20108;-81
2021/07/27 07:29:43;;;;;;;8.00;4.20;;;19.50;99.90;;;;;;5005765;28;20040;-81
2021/07/27 07:32:09;;;;;;;6.88;3.90;;;19.60;99.90;;;;;;5007809;28;20380;-76
2021/07/27 07:34:35;;;;;;;5.82;4.00;;;19.60;99.90;;;;;;5016421;28;20034;-76
2021/07/27 07:37:03;;;;;;;8.60;4.03;;;19.70;99.90;;;;;;5015996;28;20026;-76
2021/07/27 07:39:29;;;;;;;8.70;4.18;;;19.80;99.90;;;;;;5015764;28;20018;-76
2021/07/27 07:41:55;;;;;;;7.93;4.45;;;19.80;99.90;;;;;;5013049;28;20025;-76
2021/07/27 07:44:22;;;;;;;6.20;4.32;;;19.80;99.90;;;;;;5016184;28;20030;-76
2021/07/27 07:46:48;;;;;;;6.97;4.22;;;19.90;99.90;;;;;;5016055;28;20037;-76
2021/07/27 07:49:13;;;;;;;6.72;4.40;;;19.90;99.90;;;;;;5014754;28;20030;-76
2021/07/27 07:51:45;;;;;;;5.10;4.15;;;20.00;99.90;;;;;;4996060;28;20704;-80
2021/07/27 07:54:11;;;;;;;10.13;4.18;;;20.00;99.90;;;;;;5012780;28;20022;-76
2021/07/27 07:56:36;;;;;;;11.45;4.40;;;20.10;99.90;;;;;;5013711;28;20501;-79
2021/07/27 07:59:02;;;;;;;5.63;4.43;;;20.10;99.90;;;;;;4990186;28;20069;-76
2021/07/27 08:01:27;;;;;;;7.25;4.40;;;20.10;99.90;;;;;;4992026;28;20022;-79
2021/07/27 08:03:53;;;;;;;8.32;4.45;;;20.20;99.90;;;;;;5005741;28;20037;-80
2021/07/27 08:06:18;;;;;;;5.80;4.20;;;20.20;99.90;;;;;;4989408;28;20038;-76
2021/07/27 08:08:44;;;;;;;7.18;5.10;;;20.20;99.90;;;;;;5015210;28;20030;-76
2021/07/27 08:11:12;;;;;;;4.85;4.00;;;20.20;99.90;;;;;;5015238;28;20030;-76
2021/07/27 08:13:38;;;;;;;6.97;4.50;;;20.20;99.90;;;;;;5013898;28;20026;-72
2021/07/27 08:16:08;;;;;;;6.40;4.00;;;20.40;99.90;;;;;;5011649;28;20022;-72
2021/07/27 08:18:34;;;;;;;7.32;4.05;;;20.40;99.90;;;;;;5005198;28;20110;-72
2021/07/27 08:20:59;;;;;;;8.07;3.90;;;20.50;99.90;;;;;;5001551;28;20069;-74
2021/07/27 08:23:25;;;;;;;5.75;3.67;;;20.60;99.90;;;;;;4992293;28;20111;-77
2021/07/27 08:25:50;;;;;;;7.47;4.57;;;20.70;99.90;;;;;;4999115;28;20045;-78
2021/07/27 08:28:16;;;;;;;7.47;3.85;;;20.70;99.90;;;;;;4994132;28;20385;-77
2021/07/27 08:30:41;;;;;;;6.28;4.43;;;20.80;99.90;;;;;;4984205;28;20045;-78
2021/07/27 08:33:07;;;;;;;6.18;4.38;;;20.90;99.90;;;;;;5003611;28;20044;-78
2021/07/27 08:35:32;;;;;;;6.95;4.40;;;20.90;99.90;;;;;;5003121;28;20435;-78
2021/07/27 08:37:58;;;;;;;5.03;3.65;;;21.00;99.90;;;;;;5003332;28;20030;-78
2021/07/27 08:40:24;;;;;;;8.80;4.55;;;21.10;99.90;;;;;;4985055;28;20150;-78
2021/07/27 08:42:50;;;;;;;6.25;4.57;;;21.20;99.90;;;;;;5003383;28;20079;-78
2021/07/27 08:45:16;;;;;;;7.88;4.10;;;21.30;99.90;;;;;;5005276;28;20033;-79
2021/07/27 08:47:47;;;;;;;10.65;4.35;;;21.40;99.90;;;;;;5006020;28;20053;-79
2021/07/27 08:50:13;;;;;;;8.70;3.97;;;21.30;99.90;;;;;;5006138;28;20030;-79
2021/07/27 08:52:39;;;;;;;4.78;4.00;;;21.40;99.90;;;;;;5005244;28;20038;-79
2021/07/27 08:55:09;;;;;;;6.82;3.95;;;21.50;99.90;;;;;;5004686;28;20667;-79
2021/07/27 08:57:41;;;;;;;10.00;4.25;;;21.70;99.90;;;;;;5004608;28;20026;-79
2021/07/27 09:00:09;;;;;;;6.55;4.10;;;21.90;99.90;;;;;;5002253;28;20030;-79
2021/07/27 09:02:34;;;;;;;5.97;4.00;;;22.00;99.90;;;;;;5004920;28;20038;-79
2021/07/27 09:05:10;;;;;;;6.70;4.00;;;22.10;99.90;;;;;;5005158;28;20092;-79
2021/07/27 09:07:36;;;;;;;7.00;4.13;;;22.10;99.90;;;;;;5005669;28;20014;-79
2021/07/27 09:10:19;;;;;;;5.68;4.10;;;22.20;99.90;;;;;;5004114;28;20033;-79
2021/07/27 09:13:02;;;;;;;5.05;4.15;;;22.10;99.90;;;;;;5001428;28;20032;-81
2021/07/27 09:15:33;;;;;;;4.68;3.78;;;22.10;99.90;;;;;;5003862;28;20026;-79
2021/07/27 09:18:01;;;;;;;6.15;4.07;;;22.10;99.90;;;;;;5001738;28;20612;-79
2021/07/27 09:20:43;;;;;;;5.57;4.22;;;22.20;99.90;;;;;;5004638;28;20157;-79
2021/07/27 09:23:17;;;;;;;5.38;3.85;;;22.40;99.90;;;;;;5007027;28;20095;-74
2021/07/27 09:25:54;;;;;;;7.40;4.40;;;22.30;99.90;;;;;;5014373;28;20068;-74
2021/07/27 09:28:20;;;;;;;7.28;4.35;;;22.30;99.90;;;;;;5014010;28;20080;-75
2021/07/27 09:30:48;;;;;;;5.30;4.13;;;22.40;99.90;;;;;;5004833;28;20030;-79
2021/07/27 09:33:15;;;;;;;5.90;4.03;;;22.40;99.90;;;;;;5002850;28;20026;-78
2021/07/27 09:35:43;;;;;;;6.85;4.50;;;22.40;99.90;;;;;;5002113;28;20030;-79
2021/07/27 09:38:12;;;;;;;7.47;4.30;;;22.60;99.90;;;;;;5002717;28;20029;-78
2021/07/27 09:40:51;;;;;;;7.55;3.80;;;22.80;99.90;;;;;;5000879;28;20060;-79
2021/07/27 09:43:20;;;;;;;8.80;4.43;;;23.00;99.90;;;;;;5001938;28;20091;-79
2021/07/27 09:45:47;;;;;;;7.57;4.10;;;23.00;99.90;;;;;;5013811;28;20422;-75
2021/07/27 09:48:17;;;;;;;5.95;3.95;;;23.10;99.90;;;;;;5013212;28;20470;-75
2021/07/27 09:50:50;;;;;;;7.85;4.38;;;23.20;99.90;;;;;;4995684;28;20072;-76
2021/07/27 09:53:16;;;;;;;10.77;4.05;;;23.30;99.90;;;;;;5014969;28;20013;-75
2021/07/27 09:55:42;;;;;;;6.05;3.97;;;23.40;99.90;;;;;;5013316;28;20091;-75
2021/07/27 09:58:08;;;;;;;8.60;4.38;;;23.40;99.90;;;;;;5012787;28;20042;-78
2021/07/27 10:00:42;;;;;;;5.45;4.18;;;23.30;99.90;;;;;;5005878;28;20072;-79
2021/07/27 10:03:12;;;;;;;5.53;3.92;;;23.40;99.90;;;;;;5001346;28;20042;-75
2021/07/27 10:05:37;;;;;;;4.45;3.60;;;23.70;99.90;;;;;;5014075;28;20405;-75
2021/07/27 10:08:03;;;;;;;6.45;3.88;;;23.90;99.90;;;;;;5013519;28;20030;-76
2021/07/27 10:10:43;;;;;;;6.40;4.30;;;24.20;99.90;;;;;;5013728;28;20030;-75
2021/07/27 10:13:10;;;;;;;9.00;4.05;;;24.50;99.90;;;;;;5015991;28;20018;-75
2021/07/27 10:15:47;;;;;;;6.45;3.85;;;24.70;99.90;;;;;;5017571;28;20084;-75
2021/07/27 10:18:13;;;;;;;6.07;3.47;;;24.80;99.90;;;;;;5017001;28;20018;-78
2021/07/27 10:20:40;;;;;;;6.50;3.83;;;25.00;99.90;;;;;;5005477;28;20042;-79
2021/07/27 10:23:20;;;;;;;7.10;4.25;;;25.20;99.90;;;;;;5004051;28;20037;-78
2021/07/27 10:25:53;;;;;;;5.93;3.60;;;25.40;99.90;;;;;;5005325;28;20037;-78
2021/07/27 10:28:23;;;;;;;5.43;3.72;;;25.50;99.90;;;;;;5009445;28;20180;-78
2021/07/27 10:30:48;;;;;;;7.70;3.75;;;25.60;99.90;;;;;;5007390;28;20037;-79
2021/07/27 10:33:14;;;;;;;10.43;3.72;;;25.70;99.90;;;;;;5006090;28;20053;-76
2021/07/27 10:35:39;;;;;;;5.00;3.53;;;25.70;99.90;;;;;;5017189;28;20026;-75
2021/07/27 10:38:14;;;;;;;6.22;3.95;;;25.90;99.90;;;;;;5017193;28;20458;-75
2021/07/27 10:40:43;;;;;;;7.32;3.63;;;26.00;99.90;;;;;;5016856;28;20026;-75
2021/07/27 10:43:09;;;;;;;5.45;3.60;;;25.90;99.90;;;;;;5016862;28;20054;-75
2021/07/27 10:45:35;;;;;;;5.03;3.50;;;26.00;99.90;;;;;;5016994;28;20076;-75
2021/07/27 10:48:02;;;;;;;4.53;3.53;;;25.80;99.90;;;;;;5016984;28;20054;-75
2021/07/27 10:50:32;;;;;;;6.85;3.70;;;25.50;99.90;;;;;;5016872;28;20022;-75
2021/07/27 10:53:22;;;;;;;5.10;3.55;;;25.60;99.90;;;;;;4998844;28;20394;-75
2021/07/27 10:55:52;;;;;;;5.63;4.00;;;25.70;99.90;;;;;;5016791;28;20030;-75
2021/07/27 10:58:19;;;;;;;7.03;4.10;;;25.70;99.90;;;;;;5016765;28;20030;-75
2021/07/27 11:00:44;;;;;;;6.80;4.05;;;25.60;99.90;;;;;;5008508;28;20030;-80
2021/07/27 11:03:10;;;;;;;6.88;4.20;;;25.50;99.90;;;;;;5005279;28;20030;-80
2021/07/27 11:05:36;;;;;;;6.00;4.00;;;25.40;99.90;;;;;;5005976;28;20030;-80
2021/07/27 11:08:02;;;;;;;7.47;3.90;;;25.50;99.90;;;;;;5004544;28;20042;-80
2021/07/27 11:10:31;;;;;;;7.07;3.88;;;25.50;99.90;;;;;;5005153;28;20057;-80
2021/07/27 11:12:58;;;;;;;7.35;4.07;;;25.50;99.90;;;;;;4986508;28;20065;-80
2021/07/27 11:15:28;;;;;;;8.73;4.32;;;25.40;99.90;;;;;;5005788;28;20194;-79
2021/07/27 11:17:58;;;;;;;8.80;4.03;;;25.50;99.90;;;;;;5006732;28;20040;-83
2021/07/27 11:20:25;;;;;;;7.88;4.63;;;25.60;99.90;;;;;;5007114;28;20045;-82
2021/07/27 11:22:57;;;;;;;9.13;4.93;;;25.40;99.90;;;;;;4987422;28;20538;-81
2021/07/27 11:25:27;;;;;;;9.13;4.45;;;25.30;99.90;;;;;;4989437;28;20037;-83
2021/07/27 11:27:53;;;;;;;9.13;4.55;;;25.50;99.90;;;;;;5010204;28;20025;-82
2021/07/27 11:30:21;;;;;;;9.50;4.80;;;25.30;99.90;;;;;;5008772;28;20048;-82
2021/07/27 11:32:48;;;;;;;8.35;4.53;;;25.20;99.90;;;;;;5012195;28;20030;-76
2021/07/27 11:35:21;;;;;;;7.90;4.63;;;25.20;99.90;;;;;;5016430;28;20088;-77
2021/07/27 11:38:05;;;;;;;16.38;4.47;;;25.10;99.90;;;;;;5015879;28;20018;-77
2021/07/27 11:40:31;;;;;;;6.18;3.95;;;25.00;99.90;;;;;;5016124;28;20018;-76
2021/07/27 11:43:05;;;;;;;6.72;4.30;;;24.90;99.90;;;;;;4999935;28;20367;-81
2021/07/27 11:45:35;;;;;;;7.80;4.30;;;25.00;99.90;;;;;;5004415;28;20065;-81
2021/07/27 11:48:01;;;;;;;7.80;4.93;;;24.90;99.90;;;;;;4989586;28;20030;-80
2021/07/27 11:50:32;;;;;;;5.50;4.20;;;24.90;99.90;;;;;;5004845;28;20041;-81
2021/07/27 11:53:03;;;;;;;8.65;4.45;;;24.80;99.90;;;;;;5004729;28;20029;-80
2021/07/27 11:55:31;;;;;;;7.65;4.55;;;24.80;99.90;;;;;;5006796;28;20609;-80
2021/07/27 11:57:56;;;;;;;7.50;4.38;;;25.10;99.90;;;;;;5011447;28;20501;-77
2021/07/27 12:00:22;;;;;;;8.95;4.95;;;25.60;99.90;;;;;;5015744;28;20018;-77
2021/07/27 12:02:48;;;;;;;9.65;4.35;;;25.70;99.90;;;;;;5015775;28;20053;-77
2021/07/27 12:05:14;;;;;;;6.43;4.45;;;25.90;99.90;;;;;;5015495;28;20057;-76
2021/07/27 12:07:39;;;;;;;7.97;4.50;;;25.90;99.90;;;;;;5015385;28;20102;-76
2021/07/27 12:10:06;;;;;;;7.68;4.28;;;26.20;99.90;;;;;;5015660;28;20375;-76
2021/07/27 12:12:32;;;;;;;6.72;4.60;;;26.40;99.90;;;;;;5015170;28;20459;-76
2021/07/27 12:14:58;;;;;;;10.63;4.10;;;26.40;99.90;;;;;;5015477;28;20022;-76
2021/07/27 12:17:24;;;;;;;6.25;4.20;;;26.50;99.90;;;;;;5015415;28;20471;-76
2021/07/27 12:19:50;;;;;;;7.80;5.85;;;26.70;99.90;;;;;;5014859;28;20124;-75
2021/07/27 12:22:16;;;;;;;7.72;4.30;;;26.60;99.90;;;;;;5015262;28;20102;-76
2021/07/27 12:24:42;;;;;;;6.00;4.13;;;26.80;99.90;;;;;;5015233;28;20022;-76
2021/07/27 12:27:08;;;;;;;7.95;4.40;;;27.00;99.90;;;;;;5014962;28;20481;-76
2021/07/27 12:29:34;;;;;;;6.55;4.35;;;27.30;99.90;;;;;;4997357;28;20022;-76
2021/07/27 12:31:59;;;;;;;7.00;4.15;;;27.50;99.90;;;;;;5015307;28;20083;-76
2021/07/27 12:34:25;;;;;;;4.70;3.80;;;27.50;99.90;;;;;;5014444;28;20026;-76
2021/07/27 12:36:52;;;;;;;6.15;3.97;;;27.50;99.90;;;;;;5014880;28;20021;-76
2021/07/27 12:39:18;;;;;;;6.43;4.15;;;27.60;99.90;;;;;;5015025;28;20018;-76
2021/07/27 12:41:44;;;;;;;8.55;4.20;;;27.50;99.90;;;;;;5014950;28;20049;-76
2021/07/27 12:44:10;;;;;;;7.00;3.72;;;27.50;99.90;;;;;;4997073;28;20076;-77
2021/07/27 12:46:35;;;;;;;5.28;3.78;;;27.60;99.90;;;;;;5015047;28;20052;-77
2021/07/27 12:49:02;;;;;;;5.55;3.85;;;27.40;99.90;;;;;;5015033;28;20474;-77
2021/07/27 12:51:27;;;;;;;5.82;3.50;;;27.20;99.90;;;;;;5014161;28;20104;-77
2021/07/27 12:53:53;;;;;;;5.10;3.53;;;27.20;99.90;;;;;;5014732;28;20109;-77
2021/07/27 12:56:18;;;;;;;4.40;3.40;;;27.40;99.90;;;;;;5014392;28;20068;-77
2021/07/27 12:58:44;;;;;;;6.75;4.22;;;27.40;99.90;;;;;;5014813;28;20077;-77
2021/07/27 13:01:09;;;;;;;4.57;3.80;;;27.30;99.90;;;;;;5014347;28;20022;-77
2021/07/27 13:03:35;;;;;;;8.02;4.72;;;27.60;99.90;;;;;;5014858;28;20344;-76
2021/07/27 13:06:01;;;;;;;4.53;3.25;;;27.70;99.90;;;;;;5014250;28;20099;-77